createdAt,value
2023-03-04T00:01:51.455Z,77582.25
2023-03-04T00:04:18.589Z,77590.38
2023-03-04T00:06:45.761Z,77586.31
2023-03-04T00:09:12.879Z,77586.31
2023-03-04T00:11:40.185Z,77578.22
2023-03-04T00:14:07.591Z,77559.97
2023-03-04T00:16:34.804Z,77576.19
2023-03-04T00:19:01.723Z,77576.19
2023-03-04T00:21:29.321Z,77582.25
2023-03-04T00:23:56.513Z,77570.09
2023-03-04T00:26:23.895Z,77570.09
2023-03-04T00:28:51.008Z,77553.88
2023-03-04T00:31:18.288Z,77578.22
2023-03-04T00:33:45.325Z,77553.88
2023-03-04T00:36:12.750Z,77561.97
2023-03-04T00:38:39.667Z,77559.97
2023-03-04T00:41:07.371Z,77553.88
2023-03-04T00:43:34.706Z,77541.72
2023-03-04T00:46:02.148Z,77533.59
2023-03-04T00:48:30.261Z,77525.47
2023-03-04T00:50:57.416Z,77523.47
2023-03-04T00:53:24.701Z,77541.72
2023-03-04T00:55:51.885Z,77529.53
2023-03-04T00:58:19.210Z,77519.41
2023-03-04T01:00:46.470Z,77525.47
2023-03-04T01:03:13.586Z,77529.53
2023-03-04T01:05:41.106Z,77505.22
2023-03-04T01:08:08.016Z,77499.13
2023-03-04T01:10:35.221Z,77505.22
2023-03-04T01:13:02.865Z,77497.09
2023-03-04T01:15:30.066Z,77501.16
2023-03-04T01:17:57.293Z,77501.16
2023-03-04T01:20:24.997Z,77484.94
2023-03-04T01:22:52.129Z,77476.81
2023-03-04T01:25:19.460Z,77480.88
2023-03-04T01:27:46.411Z,77480.88
2023-03-04T01:30:14.235Z,77472.78
2023-03-04T01:32:41.541Z,77474.78
2023-03-04T01:35:10.016Z,77476.81
2023-03-04T01:37:38.138Z,77454.53
2023-03-04T01:40:05.898Z,77448.44
2023-03-04T01:42:36.009Z,77436.28
2023-03-04T01:45:05.481Z,77440.31
2023-03-04T01:47:36.172Z,77428.16
2023-03-04T01:50:07.587Z,77436.28
2023-03-04T01:52:34.690Z,77428.16
2023-03-04T01:55:02.688Z,77432.22
2023-03-04T01:57:35.564Z,77428.16
2023-03-04T02:00:29.193Z,77430.19
2023-03-04T02:03:01.100Z,77432.22
2023-03-04T02:05:28.800Z,77428.16
2023-03-04T02:07:57.336Z,77413.97
2023-03-04T02:10:24.946Z,77405.84
2023-03-04T02:12:52.778Z,77407.88
2023-03-04T02:15:21.098Z,77383.56
2023-03-04T02:17:48.460Z,77395.72
2023-03-04T02:20:28.430Z,77409.91
2023-03-04T02:23:04.247Z,77395.72
2023-03-04T02:25:39.823Z,77395.72
2023-03-04T02:28:07.226Z,77401.81
2023-03-04T02:30:35.204Z,77401.81
2023-03-04T02:33:02.309Z,77399.78
2023-03-04T02:35:31.036Z,77395.72
2023-03-04T02:37:58.255Z,77387.59
2023-03-04T02:40:32.970Z,77395.72
2023-03-04T02:43:01.023Z,77385.59
2023-03-04T02:45:31.172Z,77385.59
2023-03-04T02:47:58.313Z,77373.41
2023-03-04T02:50:28.580Z,77375.44
2023-03-04T02:52:55.652Z,77377.47
2023-03-04T02:55:23.212Z,77371.38
2023-03-04T02:57:50.794Z,77359.22
2023-03-04T03:00:18.182Z,77367.34
2023-03-04T03:02:45.835Z,77349.09
2023-03-04T03:05:14.348Z,77347.06
2023-03-04T03:07:41.312Z,77343.00
2023-03-04T03:10:09.268Z,77338.94
2023-03-04T03:12:36.921Z,77349.09
2023-03-04T03:15:05.210Z,77338.94
2023-03-04T03:17:32.928Z,77334.91
2023-03-04T03:20:00.480Z,77330.84
2023-03-04T03:22:27.422Z,77336.91
2023-03-04T03:24:54.675Z,77330.84
2023-03-04T03:27:21.594Z,77332.88
2023-03-04T03:29:50.202Z,77334.91
2023-03-04T03:32:17.289Z,77310.56
2023-03-04T03:34:44.775Z,77302.44
2023-03-04T03:37:12.580Z,77294.34
2023-03-04T03:39:39.788Z,77298.41
2023-03-04T03:42:07.481Z,77280.16
2023-03-04T03:44:35.076Z,77302.44
2023-03-04T03:47:02.927Z,77294.34
2023-03-04T03:49:30.335Z,77294.34
2023-03-04T03:51:57.271Z,77270.00
2023-03-04T03:54:24.511Z,77259.88
2023-03-04T03:56:51.649Z,77261.91
2023-03-04T03:59:18.900Z,77265.97
2023-03-04T04:01:46.079Z,77253.78
2023-03-04T04:04:14.326Z,77253.78
2023-03-04T04:06:41.714Z,77253.78
2023-03-04T04:09:08.881Z,77257.84
2023-03-04T04:11:35.777Z,77233.53
2023-03-04T04:14:03.472Z,77249.75
2023-03-04T04:16:30.843Z,77243.66
2023-03-04T04:18:58.500Z,77237.56
2023-03-04T04:21:25.482Z,77233.53
2023-03-04T04:23:53.019Z,77241.63
2023-03-04T04:26:19.913Z,77225.41
2023-03-04T04:28:48.020Z,77233.53
2023-03-04T04:31:15.317Z,77225.41
2023-03-04T04:33:42.895Z,77221.34
2023-03-04T04:36:14.583Z,77235.53
2023-03-04T04:38:41.954Z,77209.19
2023-03-04T04:41:21.394Z,77221.34
2023-03-04T04:43:49.205Z,77217.28
2023-03-04T04:46:17.136Z,77225.41
2023-03-04T04:48:45.019Z,77217.28
2023-03-04T04:51:12.329Z,77217.28
2023-03-04T04:53:40.002Z,77217.28
2023-03-04T04:56:11.864Z,77213.25
2023-03-04T04:58:39.592Z,77199.06
2023-03-04T05:01:07.281Z,77201.06
2023-03-04T05:03:35.622Z,77192.97
2023-03-04T05:06:05.321Z,77201.06
2023-03-04T05:08:32.767Z,77195.00
2023-03-04T05:11:00.194Z,77197.03
2023-03-04T05:13:28.496Z,77195.00
2023-03-04T05:15:56.691Z,77201.06
2023-03-04T05:18:25.756Z,77184.84
2023-03-04T05:20:54.510Z,77192.97
2023-03-04T05:23:22.993Z,77180.81
2023-03-04T05:25:50.009Z,77180.81
2023-03-04T05:28:18.047Z,77180.81
2023-03-04T05:30:46.615Z,77160.53
2023-03-04T05:33:17.271Z,77172.69
2023-03-04T05:35:46.035Z,77164.59
2023-03-04T05:38:14.858Z,77172.69
2023-03-04T05:40:43.513Z,77168.63
2023-03-04T05:43:11.566Z,77168.63
2023-03-04T05:45:39.171Z,77164.59
2023-03-04T05:48:07.862Z,77162.56
2023-03-04T05:50:35.938Z,77168.63
2023-03-04T05:53:03.112Z,77164.59
2023-03-04T05:55:30.127Z,77180.81
2023-03-04T05:57:57.879Z,77164.59
2023-03-04T06:00:25.795Z,77168.63
2023-03-04T06:02:53.491Z,77164.59
2023-03-04T06:05:22.269Z,77164.59
2023-03-04T06:07:49.519Z,77156.47
2023-03-04T06:10:18.043Z,77148.38
2023-03-04T06:12:45.477Z,77156.47
2023-03-04T06:15:13.086Z,77152.41
2023-03-04T06:17:42.399Z,77156.47
2023-03-04T06:20:11.193Z,77140.25
2023-03-04T06:22:38.662Z,77142.28
2023-03-04T06:25:06.307Z,77148.38
2023-03-04T06:27:33.496Z,77140.25
2023-03-04T06:30:01.924Z,77152.41
2023-03-04T06:32:29.467Z,77144.31
2023-03-04T06:34:56.675Z,77148.38
2023-03-04T06:37:24.016Z,77144.31
2023-03-04T06:39:51.168Z,77140.25
2023-03-04T06:42:19.607Z,77134.16
2023-03-04T06:44:48.346Z,77144.31
2023-03-04T06:47:16.703Z,77136.19
2023-03-04T06:49:43.639Z,77128.09
2023-03-04T06:52:12.958Z,77146.34
2023-03-04T06:54:40.660Z,77136.19
2023-03-04T06:57:08.337Z,77134.16
2023-03-04T06:59:35.253Z,77140.25
2023-03-04T07:02:02.922Z,77132.16
2023-03-04T07:04:29.930Z,77128.09
2023-03-04T07:06:58.390Z,77132.16
2023-03-04T07:09:25.518Z,77132.16
2023-03-04T07:11:52.720Z,77134.16
2023-03-04T07:14:20.471Z,77124.03
2023-03-04T07:16:48.655Z,77132.16
2023-03-04T07:19:15.762Z,77128.09
2023-03-04T07:21:43.282Z,77126.06
2023-03-04T07:24:10.526Z,77124.03
2023-03-04T07:26:38.516Z,77124.03
2023-03-04T07:29:05.948Z,77124.03
2023-03-04T07:31:35.649Z,77111.88
2023-03-04T07:34:05.404Z,77103.75
2023-03-04T07:36:35.645Z,77099.72
2023-03-04T07:39:02.578Z,77091.59
2023-03-04T07:41:31.114Z,77093.63
2023-03-04T07:43:58.646Z,77091.59
2023-03-04T07:46:26.144Z,77081.47
2023-03-04T07:48:54.573Z,77075.38
2023-03-04T07:51:24.402Z,77075.38
2023-03-04T07:53:55.808Z,77071.31
2023-03-04T07:56:24.364Z,77063.22
2023-03-04T07:58:54.853Z,77071.31
2023-03-04T08:01:25.255Z,77071.31
2023-03-04T08:03:52.854Z,77065.25
2023-03-04T08:06:21.729Z,77067.28
2023-03-04T08:08:50.188Z,77065.25
2023-03-04T08:11:20.977Z,77071.31
2023-03-04T08:13:49.020Z,77051.06
2023-03-04T08:16:19.449Z,77055.09
2023-03-04T08:18:49.591Z,77042.94
2023-03-04T08:21:19.518Z,77055.09
2023-03-04T08:23:47.206Z,77038.88
2023-03-04T08:26:22.932Z,77030.78
2023-03-04T08:28:50.782Z,77042.94
2023-03-04T08:31:19.083Z,77038.88
2023-03-04T08:33:47.101Z,77038.88
2023-03-04T08:36:15.379Z,77038.88
2023-03-04T08:38:42.789Z,77026.72
2023-03-04T08:41:10.545Z,77030.78
2023-03-04T08:43:37.747Z,77038.88
2023-03-04T08:46:06.353Z,77030.78
2023-03-04T08:48:34.565Z,77036.84
2023-03-04T08:51:06.900Z,77028.75
2023-03-04T08:53:34.584Z,77014.56
2023-03-04T08:56:02.052Z,77020.63
2023-03-04T08:58:29.501Z,77022.66
2023-03-04T09:01:01.552Z,77034.84
2023-03-04T09:03:29.468Z,77026.72
2023-03-04T09:05:57.042Z,77014.56
2023-03-04T09:08:24.777Z,77006.44
2023-03-04T09:10:54.399Z,77006.44
2023-03-04T09:13:26.453Z,77006.44
2023-03-04T09:15:54.760Z,76978.06
2023-03-04T09:18:23.625Z,76986.16
2023-03-04T09:20:51.344Z,76963.88
2023-03-04T09:23:21.211Z,76957.78
2023-03-04T09:25:49.881Z,76929.41
2023-03-04T09:28:18.545Z,76915.22
2023-03-04T09:30:45.826Z,76911.16
2023-03-04T09:33:13.828Z,76901.03
2023-03-04T09:35:41.428Z,76917.25
2023-03-04T09:38:08.666Z,76917.25
2023-03-04T09:40:45.655Z,76913.19
2023-03-04T09:43:20.813Z,76927.38
2023-03-04T09:45:53.290Z,76933.47
2023-03-04T09:48:30.045Z,76929.41
2023-03-04T09:51:12.806Z,76921.31
2023-03-04T09:53:52.060Z,76909.13
2023-03-04T09:56:19.973Z,76917.25
2023-03-04T09:58:56.701Z,76917.25
2023-03-04T10:01:40.350Z,76919.28
2023-03-04T10:04:22.560Z,76935.50
2023-03-04T10:06:54.611Z,76907.09
2023-03-04T10:09:39.902Z,76905.09
2023-03-04T10:12:13.513Z,76901.03
2023-03-04T10:14:51.228Z,76888.88
2023-03-04T10:17:38.215Z,76880.75
2023-03-04T10:20:08.159Z,76888.88
2023-03-04T10:22:50.286Z,76880.75
2023-03-04T10:25:29.723Z,76886.84
2023-03-04T10:28:10.876Z,76884.81
2023-03-04T10:30:56.360Z,76901.03
2023-03-04T10:33:27.664Z,76878.72
2023-03-04T10:36:05.702Z,76868.59
2023-03-04T10:38:37.172Z,76860.47
2023-03-04T10:41:19.906Z,76848.31
2023-03-04T10:44:14.468Z,76824.00
2023-03-04T10:46:44.660Z,76836.16
2023-03-04T10:49:15.138Z,76840.22
2023-03-04T10:52:25.523Z,76819.94
2023-03-04T10:54:55.862Z,76840.22
2023-03-04T10:57:39.879Z,76844.25
2023-03-04T11:00:26.617Z,76836.16
2023-03-04T11:03:22.170Z,76844.25
2023-03-04T11:05:50.085Z,76838.19
2023-03-04T11:08:22.268Z,76844.25
2023-03-04T11:10:52.452Z,76844.25
2023-03-04T11:13:28.515Z,76840.22
2023-03-04T11:16:01.039Z,76815.88
2023-03-04T11:18:37.622Z,76834.13
2023-03-04T11:21:06.925Z,76828.03
2023-03-04T11:23:42.409Z,76828.03
2023-03-04T11:26:16.683Z,76826.00
2023-03-04T11:28:59.739Z,76815.88
2023-03-04T11:31:33.985Z,76801.69
2023-03-04T11:34:16.678Z,76795.59
2023-03-04T11:36:50.585Z,76777.38
2023-03-04T11:39:27.232Z,76767.22
2023-03-04T11:42:01.606Z,76787.50
2023-03-04T11:44:30.887Z,76787.50
2023-03-04T11:47:27.352Z,76771.28
2023-03-04T11:50:01.044Z,76783.44
2023-03-04T11:52:55.827Z,76787.50
2023-03-04T11:55:31.493Z,76779.38
2023-03-04T11:58:01.616Z,76783.44
2023-03-04T12:00:44.032Z,76787.50
2023-03-04T12:03:26.442Z,76769.25
2023-03-04T12:06:03.325Z,76779.38
2023-03-04T12:08:46.864Z,76779.38
2023-03-04T12:11:20.492Z,76791.56
2023-03-04T12:13:48.258Z,76783.44
2023-03-04T12:16:39.610Z,76775.34
2023-03-04T12:19:27.454Z,76791.56
2023-03-04T12:22:11.629Z,76799.66
2023-03-04T12:24:56.738Z,76803.72
2023-03-04T12:27:51.870Z,76795.59
2023-03-04T12:30:22.304Z,76777.38
2023-03-04T12:32:57.345Z,76783.44
2023-03-04T12:35:34.310Z,76787.50
2023-03-04T12:38:12.825Z,76771.28
2023-03-04T12:41:01.258Z,76787.50
2023-03-04T12:43:41.738Z,76775.34
2023-03-04T12:46:27.240Z,76755.06
2023-03-04T12:49:16.930Z,76742.91
2023-03-04T12:52:32.273Z,76734.78
2023-03-04T12:55:04.023Z,76718.56
2023-03-04T12:57:33.347Z,76734.78
2023-03-04T13:00:09.288Z,76726.69
2023-03-04T13:02:46.413Z,76714.53
2023-03-04T13:05:35.804Z,76730.75
2023-03-04T13:08:13.450Z,76710.47
2023-03-04T13:10:40.550Z,76702.34
2023-03-04T13:13:33.682Z,76706.41
2023-03-04T13:16:32.942Z,76686.13
2023-03-04T13:19:00.740Z,76651.69
2023-03-04T13:21:32.193Z,76653.72
2023-03-04T13:24:38.266Z,76629.38
2023-03-04T13:27:42.979Z,76631.41
2023-03-04T13:30:32.084Z,76645.59
2023-03-04T13:33:21.694Z,76645.59
2023-03-04T13:36:27.741Z,76682.09
2023-03-04T13:39:16.908Z,76678.03
2023-03-04T13:41:56.976Z,76667.91
2023-03-04T13:44:42.510Z,76678.03
2023-03-04T13:47:18.859Z,76673.97
2023-03-04T13:49:46.104Z,76661.81
2023-03-04T13:52:42.742Z,76722.63
2023-03-04T13:55:36.489Z,76783.44
2023-03-04T13:58:27.134Z,76896.97
2023-03-04T14:00:56.164Z,76969.94
2023-03-04T14:03:29.214Z,76982.13
2023-03-04T14:06:41.441Z,76982.13
2023-03-04T14:09:21.098Z,76953.75
2023-03-04T14:11:51.754Z,76929.41
2023-03-04T14:14:24.337Z,76919.28
2023-03-04T14:16:58.732Z,76929.41
2023-03-04T14:19:30.498Z,76941.56
2023-03-04T14:21:59.723Z,76949.69
2023-03-04T14:24:30.793Z,76937.53
2023-03-04T14:27:13.433Z,76917.25
2023-03-04T14:29:40.818Z,76921.31
2023-03-04T14:32:08.192Z,76917.25
2023-03-04T14:34:38.061Z,76913.19
2023-03-04T14:37:23.052Z,76913.19
2023-03-04T14:39:56.211Z,76927.38
2023-03-04T14:42:28.352Z,76913.19
2023-03-04T14:44:59.793Z,76901.03
2023-03-04T14:47:40.151Z,76915.22
2023-03-04T14:50:13.902Z,76892.91
2023-03-04T14:52:43.659Z,76880.75
2023-03-04T14:55:27.384Z,76850.34
2023-03-04T14:58:09.671Z,76819.94
2023-03-04T15:00:42.794Z,76789.53
2023-03-04T15:03:40.476Z,76763.16
2023-03-04T15:06:23.263Z,76783.44
2023-03-04T15:09:00.839Z,76779.38
2023-03-04T15:11:44.855Z,76775.34
2023-03-04T15:14:41.166Z,76767.22
2023-03-04T15:17:26.576Z,76775.34
2023-03-04T15:20:06.045Z,76765.19
2023-03-04T15:22:57.905Z,76775.34
2023-03-04T15:25:25.156Z,76791.56
2023-03-04T15:27:54.207Z,76787.50
2023-03-04T15:30:31.295Z,76807.78
2023-03-04T15:32:59.882Z,76815.88
2023-03-04T15:35:31.097Z,76824.00
2023-03-04T15:37:58.965Z,76832.09
2023-03-04T15:40:34.018Z,76828.03
2023-03-04T15:43:04.109Z,76848.31
2023-03-04T15:45:37.074Z,76868.59
2023-03-04T15:48:09.137Z,76884.81
2023-03-04T15:50:43.176Z,76907.09
2023-03-04T15:53:17.608Z,76941.56
2023-03-04T15:55:46.617Z,76965.91
2023-03-04T15:58:14.818Z,76994.28
2023-03-04T16:00:42.310Z,77004.41
2023-03-04T16:03:17.392Z,77006.44
2023-03-04T16:05:47.209Z,77018.63
2023-03-04T16:08:17.388Z,77059.16
2023-03-04T16:10:45.171Z,77063.22
2023-03-04T16:13:18.585Z,77079.44
2023-03-04T16:15:46.382Z,77073.34
2023-03-04T16:18:15.540Z,77083.50
2023-03-04T16:20:49.614Z,77099.72
2023-03-04T16:23:22.206Z,77105.78
2023-03-04T16:25:52.562Z,77115.94
2023-03-04T16:28:20.060Z,77124.03
2023-03-04T16:30:47.134Z,77126.06
2023-03-04T16:33:16.224Z,77140.25
2023-03-04T16:35:44.378Z,77160.53
2023-03-04T16:38:28.749Z,77166.59
2023-03-04T16:40:57.818Z,77180.81
2023-03-04T16:43:26.062Z,77190.94
2023-03-04T16:45:53.056Z,77197.03
2023-03-04T16:48:20.438Z,77211.22
2023-03-04T16:50:47.991Z,77217.28
2023-03-04T16:53:35.745Z,77237.56
2023-03-04T16:56:19.738Z,77249.75
2023-03-04T16:58:47.687Z,77265.97
2023-03-04T17:01:17.222Z,77270.00
2023-03-04T17:03:44.719Z,77286.22
2023-03-04T17:06:12.377Z,77282.19
2023-03-04T17:08:40.104Z,77286.22
2023-03-04T17:11:08.109Z,77294.34
2023-03-04T17:13:35.292Z,77298.41
2023-03-04T17:16:03.540Z,77310.56
2023-03-04T17:18:31.221Z,77318.66
2023-03-04T17:21:07.008Z,77322.72
2023-03-04T17:23:35.101Z,77322.72
2023-03-04T17:26:02.867Z,77330.84
2023-03-04T17:28:30.825Z,77318.66
2023-03-04T17:30:57.837Z,77332.88
2023-03-04T17:33:25.122Z,77340.97
2023-03-04T17:35:52.077Z,77355.16
2023-03-04T17:38:19.331Z,77347.06
2023-03-04T17:40:47.016Z,77377.47
2023-03-04T17:43:14.218Z,77383.56
2023-03-04T17:45:42.316Z,77383.56
2023-03-04T17:48:15.074Z,77395.72
2023-03-04T17:50:52.083Z,77403.84
2023-03-04T17:53:20.125Z,77411.94
2023-03-04T17:55:55.405Z,77407.88
2023-03-04T17:58:23.971Z,77416.00
2023-03-04T18:00:52.913Z,77428.16
2023-03-04T18:03:20.513Z,77428.16
2023-03-04T18:05:47.873Z,77444.38
2023-03-04T18:08:15.113Z,77440.31
2023-03-04T18:10:42.300Z,77440.31
2023-03-04T18:13:09.712Z,77448.44
2023-03-04T18:15:37.181Z,77452.50
2023-03-04T18:18:04.413Z,77458.56
2023-03-04T18:20:31.730Z,77460.59
2023-03-04T18:22:59.814Z,77472.78
2023-03-04T18:25:26.758Z,77472.78
2023-03-04T18:27:54.027Z,77484.94
2023-03-04T18:30:27.126Z,77493.03
2023-03-04T18:32:56.956Z,77499.13
2023-03-04T18:35:24.502Z,77507.25
2023-03-04T18:37:52.019Z,77511.28
2023-03-04T18:40:19.574Z,77515.34
2023-03-04T18:42:47.036Z,77521.44
2023-03-04T18:45:15.657Z,77525.47
2023-03-04T18:47:48.750Z,77531.56
2023-03-04T18:50:16.398Z,77533.59
2023-03-04T18:52:45.027Z,77549.81
2023-03-04T18:55:13.130Z,77545.75
2023-03-04T18:57:46.265Z,77551.84
2023-03-04T19:00:24.073Z,77561.97
2023-03-04T19:02:52.296Z,77557.94
2023-03-04T19:05:27.520Z,77561.97
2023-03-04T19:07:55.244Z,77580.22
2023-03-04T19:10:22.422Z,77580.22
2023-03-04T19:12:50.007Z,77578.22
2023-03-04T19:15:18.373Z,77594.44
2023-03-04T19:17:46.158Z,77606.59
2023-03-04T19:20:14.585Z,77606.59
2023-03-04T19:22:43.167Z,77602.53
2023-03-04T19:25:10.213Z,77606.59
2023-03-04T19:27:37.811Z,77610.66
2023-03-04T19:30:06.724Z,77612.69
2023-03-04T19:32:34.155Z,77624.84
2023-03-04T19:35:01.441Z,77634.97
2023-03-04T19:37:28.825Z,77647.16
2023-03-04T19:39:56.128Z,77647.16
2023-03-04T19:42:24.171Z,77647.16
2023-03-04T19:44:51.812Z,77651.19
2023-03-04T19:47:18.837Z,77661.34
2023-03-04T19:49:46.344Z,77671.47
2023-03-04T19:52:13.208Z,77663.38
2023-03-04T19:54:41.032Z,77679.59
2023-03-04T19:57:07.957Z,77687.69
2023-03-04T19:59:35.229Z,77691.75
2023-03-04T20:02:03.144Z,77687.69
2023-03-04T20:04:30.631Z,77705.94
2023-03-04T20:06:57.638Z,77691.75
2023-03-04T20:09:25.315Z,77687.69
2023-03-04T20:11:58.774Z,77695.81
2023-03-04T20:14:27.917Z,77703.94
2023-03-04T20:17:00.702Z,77695.81
2023-03-04T20:19:31.580Z,77716.09
2023-03-04T20:21:58.701Z,77712.03
2023-03-04T20:24:26.495Z,77720.16
2023-03-04T20:26:54.273Z,77732.31
2023-03-04T20:29:21.509Z,77728.25
2023-03-04T20:31:49.831Z,77736.38
2023-03-04T20:34:17.342Z,77748.53
2023-03-04T20:36:44.880Z,77734.34
2023-03-04T20:39:27.529Z,77740.44
2023-03-04T20:41:57.659Z,77748.53
2023-03-04T20:44:25.293Z,77740.44
2023-03-04T20:46:52.919Z,77754.63
2023-03-04T20:49:24.305Z,77748.53
2023-03-04T20:51:53.615Z,77752.59
2023-03-04T20:54:21.005Z,77764.75
2023-03-04T20:56:48.865Z,77768.81
2023-03-04T20:59:16.580Z,77754.63
2023-03-04T21:01:45.484Z,77776.94
2023-03-04T21:04:12.745Z,77768.81
2023-03-04T21:06:40.838Z,77772.88
2023-03-04T21:09:13.001Z,77785.03
2023-03-04T21:11:41.174Z,77785.03
2023-03-04T21:14:13.590Z,77776.94
2023-03-04T21:16:40.992Z,77789.09
2023-03-04T21:19:15.461Z,77780.97
2023-03-04T21:21:42.872Z,77803.28
2023-03-04T21:24:14.245Z,77797.19
2023-03-04T21:26:45.172Z,77789.09
2023-03-04T21:29:13.905Z,77793.16
2023-03-04T21:31:44.058Z,77805.31
2023-03-04T21:34:16.678Z,77813.44
2023-03-04T21:36:43.819Z,77821.53
2023-03-04T21:39:19.654Z,77809.38
2023-03-04T21:41:47.390Z,77805.31
2023-03-04T21:44:27.709Z,77809.38
2023-03-04T21:46:57.174Z,77813.44
2023-03-04T21:49:25.896Z,77817.47
2023-03-04T21:51:52.979Z,77821.53
2023-03-04T21:54:20.697Z,77813.44
2023-03-04T21:56:47.655Z,77809.38
2023-03-04T21:59:15.253Z,77819.50
2023-03-04T22:01:42.516Z,77817.47
2023-03-04T22:04:10.009Z,77811.41
2023-03-04T22:06:38.337Z,77821.53
2023-03-04T22:09:06.889Z,77817.47
2023-03-04T22:11:34.564Z,77821.53
2023-03-04T22:14:03.119Z,77819.50
2023-03-04T22:16:32.781Z,77823.56
2023-03-04T22:19:01.310Z,77821.53
2023-03-04T22:21:28.202Z,77821.53
2023-03-04T22:23:55.539Z,77817.47
2023-03-04T22:26:30.107Z,77815.44
2023-03-04T22:28:58.026Z,77813.44
2023-03-04T22:31:31.519Z,77801.25
2023-03-04T22:34:05.591Z,77809.38
2023-03-04T22:36:35.906Z,77809.38
2023-03-04T22:39:05.437Z,77809.38
2023-03-04T22:41:33.325Z,77813.44
2023-03-04T22:44:00.917Z,77803.28
2023-03-04T22:46:30.948Z,77809.38
2023-03-04T22:49:01.259Z,77811.41
2023-03-04T22:51:28.948Z,77813.44
2023-03-04T22:53:56.684Z,77825.59
2023-03-04T22:56:23.830Z,77829.66
2023-03-04T22:58:51.534Z,77837.75
2023-03-04T23:01:19.782Z,77825.59
2023-03-04T23:03:49.135Z,77829.66
2023-03-04T23:06:17.815Z,77829.66
2023-03-04T23:08:47.504Z,77829.66
2023-03-04T23:11:32.373Z,77837.75
2023-03-04T23:14:02.322Z,77845.88
2023-03-04T23:16:29.559Z,77845.88
2023-03-04T23:18:59.323Z,77841.81
2023-03-04T23:21:28.279Z,77841.81
2023-03-04T23:23:55.890Z,77849.94
2023-03-04T23:26:26.782Z,77853.97
2023-03-04T23:28:57.027Z,77849.94
2023-03-04T23:31:25.605Z,77860.06
2023-03-04T23:33:57.290Z,77866.16
2023-03-04T23:36:27.099Z,77870.22
2023-03-04T23:38:55.381Z,77870.22
2023-03-04T23:41:25.226Z,77874.25
2023-03-04T23:43:54.680Z,77884.41
2023-03-04T23:46:22.295Z,77882.38
2023-03-04T23:48:50.040Z,77886.44
2023-03-04T23:51:21.147Z,77878.31
2023-03-04T23:53:49.159Z,77874.25
2023-03-04T23:56:19.600Z,77878.31
2023-03-04T23:58:47.728Z,77884.41
